createdAt,value
2022-08-05T00:00:50.357Z,14.00
2022-08-05T00:06:04.935Z,11.10
2022-08-05T00:11:20.537Z,10.60
2022-08-05T00:16:35.548Z,17.20
2022-08-05T00:21:39.412Z,11.50
2022-08-05T00:26:50.705Z,11.90
2022-08-05T00:32:10.996Z,11.70
2022-08-05T00:37:17.347Z,9.60
2022-08-05T00:47:57.404Z,13.60
2022-08-05T00:52:58.623Z,15.50
2022-08-05T01:03:08.123Z,9.70
2022-08-05T01:08:30.267Z,7.60
2022-08-05T01:13:57.997Z,7.70
2022-08-05T01:19:30.430Z,8.30
2022-08-05T01:24:52.128Z,8.60
2022-08-05T01:30:02.217Z,7.90
2022-08-05T01:35:11.396Z,13.70
2022-08-05T01:40:35.061Z,7.40
2022-08-05T01:45:43.002Z,9.00
2022-08-05T01:50:51.143Z,8.80
2022-08-05T01:55:58.936Z,10.10
2022-08-05T02:01:08.086Z,9.30
2022-08-05T02:06:33.799Z,8.80
2022-08-05T02:11:48.133Z,7.90
2022-08-05T02:16:58.366Z,7.60
2022-08-05T02:22:25.875Z,8.10
2022-08-05T02:27:59.810Z,10.10
2022-08-05T02:33:00.342Z,7.40
2022-08-05T02:38:05.264Z,9.30
2022-08-05T02:43:14.273Z,8.00
2022-08-05T02:48:19.787Z,7.10
2022-08-05T02:53:39.005Z,8.90
2022-08-05T02:58:44.062Z,8.10
2022-08-05T03:04:02.613Z,6.40
2022-08-05T03:09:07.711Z,9.70
2022-08-05T03:14:13.306Z,7.10
2022-08-05T03:19:32.964Z,10.30
2022-08-05T03:24:37.681Z,9.30
2022-08-05T03:40:12.062Z,7.00
2022-08-05T03:45:21.363Z,10.30
2022-08-05T03:50:33.871Z,6.70
2022-08-05T03:56:05.719Z,6.70
2022-08-05T04:01:11.242Z,14.20
2022-08-05T04:06:18.097Z,9.20
2022-08-05T04:11:23.592Z,9.40
2022-08-05T04:16:45.723Z,8.90
2022-08-05T04:22:08.236Z,10.60
2022-08-05T04:27:15.320Z,12.20
2022-08-05T04:32:30.670Z,15.70
2022-08-05T04:38:02.285Z,13.60
2022-08-05T04:42:57.759Z,7.70
2022-08-05T04:53:09.295Z,12.00
2022-08-05T04:58:14.951Z,7.00
2022-08-05T05:03:24.466Z,6.10
2022-08-05T05:08:30.080Z,10.60
2022-08-05T05:13:43.004Z,10.90
2022-08-05T05:19:08.854Z,8.50
2022-08-05T05:24:09.352Z,10.90
2022-08-05T05:29:14.380Z,15.30
2022-08-05T05:34:22.537Z,11.90
2022-08-05T05:39:31.680Z,7.50
2022-08-05T05:44:45.899Z,8.70
2022-08-05T05:49:52.514Z,6.80
2022-08-05T05:55:01.119Z,8.80
2022-08-05T06:00:10.413Z,10.10
2022-08-05T06:05:16.779Z,20.20
2022-08-05T06:10:19.957Z,13.40
2022-08-05T06:16:27.592Z,8.20
2022-08-05T06:20:49.231Z,7.50
2022-08-05T06:26:13.927Z,8.40
2022-08-05T06:31:30.436Z,10.30
2022-08-05T06:36:53.498Z,8.90
2022-08-05T06:41:59.154Z,9.30
2022-08-05T06:47:02.243Z,13.40
2022-08-05T06:52:05.743Z,11.60
2022-08-05T06:57:57.836Z,5.80
2022-08-05T07:02:32.365Z,9.50
2022-08-05T07:07:43.901Z,9.50
2022-08-05T07:13:05.693Z,12.20
2022-08-05T07:18:10.323Z,10.70
2022-08-05T07:23:26.082Z,8.60
2022-08-05T07:28:29.581Z,7.90
2022-08-05T07:33:36.420Z,7.90
2022-08-05T07:38:42.797Z,13.30
2022-08-05T07:43:47.746Z,8.30
2022-08-05T07:49:02.069Z,6.60
2022-08-05T07:54:10.113Z,7.70
2022-08-05T07:59:13.160Z,9.00
2022-08-05T08:04:17.269Z,6.30
2022-08-05T08:09:37.435Z,8.10
2022-08-05T08:14:46.857Z,7.70
2022-08-05T08:20:42.778Z,9.00
2022-08-05T08:25:16.332Z,7.10
2022-08-05T08:30:33.971Z,6.60
2022-08-05T08:35:53.832Z,5.60
2022-08-05T08:41:08.726Z,8.60
2022-08-05T08:46:16.164Z,9.30
2022-08-05T08:52:01.987Z,8.20
2022-08-05T08:56:47.383Z,9.20
2022-08-05T09:01:57.301Z,11.60
2022-08-05T09:07:10.649Z,10.40
2022-08-05T09:12:27.417Z,8.60
2022-08-05T09:17:41.106Z,8.50
2022-08-05T09:23:05.575Z,9.90
2022-08-05T09:28:23.503Z,7.90
2022-08-05T09:33:35.218Z,11.20
2022-08-05T09:38:38.110Z,5.80
2022-08-05T09:43:42.302Z,10.50
2022-08-05T09:49:07.039Z,7.00
2022-08-05T09:54:09.512Z,11.10
2022-08-05T09:59:17.030Z,11.40
2022-08-05T10:04:28.683Z,6.40
2022-08-05T10:09:44.853Z,6.30
2022-08-05T10:14:48.234Z,7.70
2022-08-05T10:20:04.041Z,6.60
2022-08-05T10:25:14.350Z,6.70
2022-08-05T10:31:19.959Z,5.10
2022-08-05T10:35:44.239Z,9.10
2022-08-05T10:40:58.167Z,10.90
2022-08-05T10:46:10.489Z,9.10
2022-08-05T10:51:22.475Z,8.90
2022-08-05T11:01:55.336Z,5.80
2022-08-05T11:07:06.766Z,5.20
2022-08-05T11:12:24.682Z,7.30
2022-08-05T11:18:00.087Z,8.50
2022-08-05T11:22:54.009Z,7.70
2022-08-05T11:28:11.657Z,10.10
2022-08-05T11:33:43.986Z,7.00
2022-08-05T11:38:51.760Z,6.10
2022-08-05T11:44:05.902Z,8.70
2022-08-05T11:49:16.297Z,10.00
2022-08-05T11:54:33.633Z,6.80
2022-08-05T11:59:49.814Z,10.50
2022-08-05T12:04:59.528Z,8.50
2022-08-05T12:10:09.089Z,7.40
2022-08-05T12:15:37.939Z,6.20
2022-08-05T12:20:41.584Z,11.80
2022-08-05T12:25:56.796Z,8.10
2022-08-05T12:31:01.955Z,8.40
2022-08-05T12:36:07.880Z,7.20
2022-08-05T12:41:16.346Z,6.80
2022-08-05T12:46:31.426Z,5.70
2022-08-05T12:52:14.355Z,9.30
2022-08-05T12:57:15.448Z,5.90
2022-08-05T13:02:30.410Z,11.10
2022-08-05T13:07:59.253Z,9.40
2022-08-05T13:12:58.462Z,12.30
2022-08-05T13:18:02.085Z,10.90
2022-08-05T13:23:07.340Z,8.60
2022-08-05T13:28:10.603Z,8.40
2022-08-05T13:33:14.218Z,10.40
2022-08-05T13:38:28.307Z,5.70
2022-08-05T13:43:45.723Z,7.10
2022-08-05T13:49:00.734Z,8.00
2022-08-05T13:54:12.579Z,13.90
2022-08-05T13:59:19.471Z,7.90
2022-08-05T14:04:42.358Z,10.00
2022-08-05T14:09:46.364Z,5.90
2022-08-05T14:14:49.816Z,6.70
2022-08-05T14:20:00.851Z,7.80
2022-08-05T14:25:21.408Z,9.50
2022-08-05T14:30:28.172Z,12.00
2022-08-05T14:35:36.916Z,8.00
2022-08-05T14:40:54.293Z,5.60
2022-08-05T14:45:56.984Z,8.10
2022-08-05T14:50:59.679Z,7.20
2022-08-05T14:56:06.043Z,8.20
2022-08-05T15:01:11.195Z,6.90
2022-08-05T15:06:19.065Z,7.40
2022-08-05T15:11:51.651Z,9.30
2022-08-05T15:16:56.446Z,7.10
2022-08-05T15:22:01.278Z,6.60
2022-08-05T15:27:04.471Z,6.90
2022-08-05T15:32:12.043Z,9.40
2022-08-05T15:37:19.375Z,9.00
2022-08-05T15:42:54.748Z,6.00
2022-08-05T15:47:59.737Z,10.00
2022-08-05T15:53:05.770Z,7.70
2022-08-05T15:58:16.503Z,10.30
2022-08-05T16:03:19.818Z,7.60
2022-08-05T16:08:23.984Z,7.20
2022-08-05T16:13:34.498Z,8.50
2022-08-05T16:18:52.268Z,9.10
2022-08-05T16:23:58.040Z,8.20
2022-08-05T16:29:04.365Z,8.70
2022-08-05T16:34:11.120Z,9.10
2022-08-05T16:39:14.284Z,12.60
2022-08-05T16:44:18.262Z,11.90
2022-08-05T16:49:23.875Z,13.50
2022-08-05T16:54:31.913Z,8.40
2022-08-05T16:59:35.895Z,12.70
2022-08-05T17:04:58.659Z,11.00
2022-08-05T17:10:01.416Z,9.00
2022-08-05T17:15:07.492Z,7.20
2022-08-05T17:20:14.568Z,17.20
2022-08-05T17:25:22.192Z,11.70
2022-08-05T17:30:42.501Z,13.20
2022-08-05T17:36:07.423Z,10.40
2022-08-05T17:42:16.822Z,7.40
2022-08-05T17:46:35.905Z,9.80
2022-08-05T17:51:40.119Z,11.30
2022-08-05T17:56:44.657Z,8.90
2022-08-05T18:01:51.790Z,9.80
2022-08-05T18:06:54.765Z,14.50
2022-08-05T18:12:03.617Z,16.20
2022-08-05T18:17:06.982Z,15.10
2022-08-05T18:22:36.188Z,14.60
2022-08-05T18:27:52.255Z,11.90
2022-08-05T18:33:00.770Z,13.10
2022-08-05T18:38:03.992Z,22.90
2022-08-05T18:43:09.133Z,25.30
2022-08-05T18:48:31.619Z,31.30
2022-08-05T18:53:45.950Z,31.40
2022-08-05T18:58:55.002Z,27.20
2022-08-05T19:04:05.498Z,43.00
2022-08-05T19:09:08.333Z,29.40
2022-08-05T19:14:59.449Z,29.10
2022-08-05T19:19:33.741Z,24.70
2022-08-05T19:24:36.974Z,21.20
2022-08-05T19:29:58.336Z,22.90
2022-08-05T19:35:06.408Z,23.50
2022-08-05T19:40:10.813Z,19.50
2022-08-05T19:45:14.578Z,13.40
2022-08-05T19:50:17.495Z,18.40
2022-08-05T19:56:14.237Z,15.90
2022-08-05T20:00:43.148Z,18.50
2022-08-05T20:05:51.478Z,18.10
2022-08-05T20:10:55.231Z,23.40
2022-08-05T20:15:58.033Z,15.50
2022-08-05T20:21:04.505Z,21.90
2022-08-05T20:26:16.474Z,23.00
2022-08-05T20:36:31.328Z,23.80
2022-08-05T20:41:44.439Z,22.60
2022-08-05T20:46:48.186Z,23.90
2022-08-05T20:51:54.222Z,22.80
2022-08-05T20:56:57.979Z,24.60
2022-08-05T21:02:00.717Z,26.10
2022-08-05T21:07:04.600Z,23.60
2022-08-05T21:12:11.611Z,22.00
2022-08-05T21:17:15.389Z,26.50
2022-08-05T21:22:21.763Z,24.30
2022-08-05T21:27:27.419Z,24.30
2022-08-05T21:32:30.540Z,19.00
2022-08-05T21:37:35.049Z,18.70
2022-08-05T21:42:45.149Z,23.80
2022-08-05T21:47:57.208Z,16.00
2022-08-05T21:53:08.409Z,17.80
2022-08-05T21:58:20.648Z,18.10
2022-08-05T22:03:52.185Z,17.00
2022-08-05T22:08:56.242Z,10.80
2022-08-05T22:14:05.829Z,13.00
2022-08-05T22:20:01.116Z,15.00
2022-08-05T22:25:04.132Z,13.00
2022-08-05T22:30:13.973Z,13.30
2022-08-05T22:35:16.724Z,12.00
2022-08-05T22:40:20.409Z,14.00
2022-08-05T22:45:26.260Z,13.50
2022-08-05T22:50:29.010Z,12.00
2022-08-05T22:55:56.748Z,11.70
2022-08-05T23:00:54.676Z,12.10
2022-08-05T23:05:59.981Z,8.50
2022-08-05T23:11:04.098Z,9.50
2022-08-05T23:16:06.967Z,8.50
2022-08-05T23:21:11.102Z,10.30
2022-08-05T23:26:20.089Z,9.40
2022-08-05T23:31:24.434Z,10.20
2022-08-05T23:36:28.318Z,9.20
2022-08-05T23:41:41.167Z,13.00
2022-08-05T23:46:51.775Z,9.30
2022-08-05T23:52:13.051Z,13.80
2022-08-05T23:57:19.477Z,10.10
